Flight Track Log - Related Links

Times and Time Zones

All times are in EDT time to prevent confusion due to time zone crossing. See the SWA1021 flight status page for this flight to view local times or setup timezone preferences in your user account.

Time Position Orientation Groundspeed Altitude Reporting Facility
EDT Latitude Longitude Course Direction KTS MPH feet Rate Location/Type
Wed 10:13:01 AM 37.7167 -122.2500 310° West 155 178 1,000  Level Northern Cal TRACON
Wed 10:14:01 AM 37.7500 -122.3000 310° West 202 232 2,800 2,250 Climbing Northern Cal TRACON
Wed 10:15:01 AM 37.7500 -122.3833 270° West 234 269 5,500 2,826 Climbing Northern Cal TRACON
Wed 10:16:02 AM 37.7000 -122.4500 227° Southwest 309 356 8,500 2,908 Climbing Northern Cal TRACON
Wed 10:18:17 AM 37.5433 -122.5594 209° Southwest 369 425 15,000 2,786 Climbing Oakland Center
Wed 10:19:18 AM 37.4581 -122.4436 133° Southeast 385 443 17,600 2,361 Climbing Oakland Center
Wed 10:20:19 AM 37.3833 -122.3392 132° Southeast 402 463 19,800 2,361 Climbing Oakland Center
Wed 10:21:20 AM 37.3069 -122.2317 132° Southeast 411 473 22,400 2,213 Climbing Oakland Center
Wed 10:22:21 AM 37.2286 -122.1231 132° Southeast 421 484 24,300 1,918 Climbing Oakland Center
Wed 10:23:22 AM 37.1486 -122.0097 132° Southeast 433 498 26,300 1,672 Climbing Oakland Center
Wed 10:24:23 AM 37.0653 -121.8936 132° Southeast 445 512 27,700 1,525 Climbing Oakland Center
Wed 10:25:24 AM 36.9800 -121.7756 132° Southeast 456 525 29,400 1,707 Climbing Oakland Center
Wed 10:26:26 AM 36.8936 -121.6572 132° Southeast 463 533 31,200 1,902 Climbing Oakland Center
Wed 10:27:27 AM 36.8044 -121.5342 132° Southeast 459 528 33,300 1,770 Climbing Oakland Center
Wed 10:28:28 AM 36.7211 -121.4183 132° Southeast 453 521 34,800 1,328 Climbing Oakland Center
Wed 10:29:29 AM 36.6386 -121.3039 132° Southeast 447 514 36,000 1,082 Climbing Oakland Center
Wed 10:30:30 AM 36.5564 -121.1931 133° Southeast 440 506 37,000 492 Climbing Oakland Center
Wed 10:31:31 AM 36.4753 -121.0814 132° Southeast 436 502 37,000  Level Oakland Center
Wed 10:32:32 AM 36.3761 -120.9486 133° Southeast 437 503 37,000  Level Oakland Center
Wed 10:34:34 AM 36.2139 -120.7292 132° Southeast 434 499 37,000  Level Oakland Center
Wed 10:35:35 AM 36.1311 -120.6192 133° Southeast 435 501 37,000  Level Oakland Center
Wed 10:36:36 AM 36.0489 -120.5081 132° Southeast 437 503 37,000  Level Oakland Center
Wed 10:37:38 AM 35.9639 -120.3964 133° Southeast 443 510 37,000  Level Oakland Center
Wed 10:38:39 AM 35.8789 -120.2833 133° Southeast 446 513 37,000  Level Oakland Center
Wed 10:39:40 AM 35.7936 -120.1728 134° Southeast 443 510 37,000  Level Oakland Center
Wed 10:40:41 AM 35.7089 -120.0594 133° Southeast 447 514 37,000  Level Oakland Center
Wed 10:41:42 AM 35.6025 -119.9800 149° Southeast 459 528 37,000  Level Oakland Center
Wed 10:42:43 AM 35.4767 -119.9419 166° South 461 531 37,000 -229 Level Oakland Center
Wed 10:43:53 AM 35.3264 -119.8964 166° South 460 529 36,500 -687 Descending Los Angeles Center
Wed 10:44:54 AM 35.2092 -119.8431 160° South 444 511 35,500 -878 Descending Los Angeles Center
Wed 10:45:56 AM 35.1200 -119.7861 152° Southeast 446 513 34,700 -919 Descending Los Angeles Center
Wed 10:46:58 AM 34.9889 -119.7017 152° Southeast 445 512 33,600 -971 Descending Los Angeles Center
Wed 10:48:12 AM 34.8836 -119.6175 147° Southeast 450 518 32,500 -1,689 Descending Los Angeles Center
Wed 10:49:13 AM 34.7872 -119.4786 130° Southeast 452 520 29,800 -2,829 Descending Los Angeles Center
Wed 10:50:15 AM 34.6878 -119.3408 131° Southeast 452 520 26,700 -2,710 Descending Los Angeles Center
Wed 10:51:17 AM 34.6081 -119.2311 131° Southeast 442 509 24,200 -2,371 Descending Los Angeles Center
Wed 10:52:19 AM 34.5292 -119.1222 131° Southeast 433 498 21,800 -2,323 Descending Los Angeles Center
Wed 10:53:21 AM 34.4506 -119.0131 131° Southeast 429 494 19,400 -2,341 Descending Los Angeles Center
Wed 10:54:22 AM 34.3769 -118.9089 131° Southeast 409 471 17,000 -2,390 Descending Los Angeles Center
Wed 10:55:24 AM 34.2761 -118.8531 155° Southeast 404 465 14,500 -2,419 Descending Los Angeles Center
Wed 10:56:26 AM 34.1550 -118.8083 163° South 376 433 12,000 -1,984 Descending Los Angeles Center
Wed 10:57:28 AM 34.0753 -118.7503 149° Southeast 349 402 10,400 -976 Descending Los Angeles Center
Wed 10:58:29 AM 34.0567 -118.6675 105° East 302 348 10,000 -878 Descending Los Angeles Center
Wed 10:59:31 AM 34.0306 -118.5514 105° East 290 334 8,600 -1,355 Descending Los Angeles Center
Wed 11:00:33 AM 34.0119 -118.4633 104° East 273 314 7,200 -1,355 Descending Los Angeles Center
Wed 11:01:35 AM 34.0231 -118.3942 79° East 244 281 5,800 -1,463 Descending Los Angeles Center
Wed 11:02:36 AM 34.0394 -118.3219 75° East 226 260 4,200 -1,659 Descending Los Angeles Center
Wed 11:03:38 AM 34.0111 -118.2833 132° Southeast 206 237 2,400 -1,355 Descending Los Angeles Center
Wed 11:04:40 AM 33.9658 -118.3189 213° Southwest 178 205 1,400 -774 Descending Los Angeles Center
Wed 11:05:42 AM 33.9567 -118.3597 255° West 145 167 800 -629 Descending Los Angeles Center
Wed 11:06:44 AM 33.9528 -118.4028 264° West 134 154 100 -677 Descending Los Angeles Center
Wed 11:08:00 AM 33.9425 -118.4081 228° Southwest  Level Estimated
Wed 11:15:00 AM 33.9425 -118.4081 228° Southwest  Level Estimated

Login

Don't have an account? Register now (free) for customized features, flight alerts, and more!